Friday, January 19, 2018, 10:36 AM EST
Back to Local

KPIT, Greater Pittsburgh International

Location: Coraopolis, PA, United States Lat: 40.483
Local Time: 10:36 AM EST (15:36 GMT) Lon: -80.233
Time Zone: US/Eastern Elev: 1204 ft

Show me the last for .
Show Decoded

2018-01-19 09:51 METAR KPIT 191451Z 22011KT 10SM SCT250 M03/M11 A3010 RMK AO2 SLP216 T10331111
                 51000 =
2018-01-19 08:51 METAR KPIT 191351Z 21009KT 10SM BKN250 M05/M12 A3010 RMK AO2 SLP217 T10501117 =
2018-01-19 07:51 METAR KPIT 191251Z 21008KT 10SM BKN250 M06/M12 A3010 RMK AO2 SLP219 T10561122 =
2018-01-19 06:51 METAR KPIT 191151Z 22008KT 10SM FEW250 M06/M12 A3010 RMK AO2 SLP217 T10561122
                 11044 21056 53003 =
2018-01-19 05:51 METAR KPIT 191051Z 22009KT 10SM CLR M05/M12 A3009 RMK AO2 SLP215 T10501122 =
2018-01-19 04:51 METAR KPIT 190951Z 23009KT 10SM CLR M05/M12 A3009 RMK AO2 SLP212 T10501122 =
2018-01-19 03:51 METAR KPIT 190851Z 23009KT 10SM CLR M05/M12 A3009 RMK AO2 SLP213 T10501122 53004
                 =
2018-01-19 02:51 METAR KPIT 190751Z 22008KT 10SM CLR M05/M12 A3008 RMK AO2 SLP211 T10501122 =
2018-01-19 01:51 METAR KPIT 190651Z 22008KT 10SM CLR M04/M12 A3008 RMK AO2 SLP209 T10441122 =
2018-01-19 00:51 METAR KPIT 190551Z 22010KT 10SM CLR M04/M12 A3008 RMK AO2 SLP210 T10441122 11033
                 21044 58014 =
2018-01-18 23:51 METAR KPIT 190451Z 23011KT 10SM CLR M04/M12 A3010 RMK AO2 SLP219 T10391122
                 410281139 =
2018-01-18 22:51 METAR KPIT 190351Z 22008G16KT 10SM CLR M04/M12 A3011 RMK AO2 SLP223 T10391122 =
2018-01-18 21:51 METAR KPIT 190251Z 21011KT 10SM CLR M04/M12 A3012 RMK AO2 SLP227 T10441122 50000
                 =
2018-01-18 20:51 METAR KPIT 190151Z 23009KT 10SM CLR M04/M12 A3013 RMK AO2 SLP231 T10441117 =
2018-01-18 19:51 METAR KPIT 190051Z 23009KT 10SM CLR M04/M12 A3013 RMK AO2 SLP232 T10441122 =
2018-01-18 18:51 METAR KPIT 182351Z 23008KT 10SM CLR M04/M12 A3012 RMK AO2 SLP228 T10391122 11028
                 21061 53001 =
2018-01-18 17:51 METAR KPIT 182251Z 21005KT 10SM CLR M04/M12 A3011 RMK AO2 SLP225 T10391122 =
2018-01-18 16:51 METAR KPIT 182151Z 23011KT 10SM FEW250 M03/M12 A3011 RMK AO2 SLP225 T10331122 =
2018-01-18 15:51 METAR KPIT 182051Z 25008G17KT 10SM FEW250 M03/M12 A3012 RMK AO2 SLP227 T10281122
                 56010 =
2018-01-18 14:51 METAR KPIT 181951Z 23012G18KT 10SM CLR M03/M12 A3012 RMK AO2 SLP227 T10331122 =
2018-01-18 13:51 METAR KPIT 181851Z 24012G17KT 10SM CLR M04/M12 A3012 RMK AO2 SLP229 T10441122 =
2018-01-18 12:51 METAR KPIT 181751Z 24016G21KT 10SM CLR M06/M13 A3015 RMK AO2 SLP239 T10611133
                 11061 21128 58022 =
2018-01-18 11:51 METAR KPIT 181651Z 23015G22KT 10SM CLR M08/M14 A3018 RMK AO2 SLP253 T10781139 =
2018-01-18 10:51 METAR KPIT 181551Z 23010G17KT 10SM FEW008 M08/M14 A3022 RMK AO2 SLP266 T10831139
                 =

Support USWX by starting your Amazon purchase here.